Time;durP1;ratioP1;P1;durP2;ratioP2;P2;SDS_P1;SDS_P2;PMS_P1;PMS_P2;Temp;Humidity;BMP_temperature;BMP_pressure;BME280_temperature;BME280_humidity;BME280_pressure;Samples;Min_cycle;Max_cycle;Signal;HPM_P1;HPM_P2
2023/12/26 00:01:54;;;;;;;18.75;7.28;;;;;;;;;;5083762;28;20017;-56
2023/12/26 00:04:23;;;;;;;15.23;7.20;;;;;;;;;;5083825;28;20205;-51
2023/12/26 00:06:49;;;;;;;11.68;5.22;;;;;;;;;;5083602;28;20336;-52
2023/12/26 00:09:16;;;;;;;11.27;4.70;;;;;;;;;;5083592;28;20254;-62
2023/12/26 00:11:44;;;;;;;10.98;3.97;;;;;;;;;;5084006;28;20020;-46
2023/12/26 00:14:10;;;;;;;11.52;3.92;;;;;;;;;;5083619;28;20032;-50
2023/12/26 00:16:37;;;;;;;8.40;3.20;;;;;;;;;;5097676;28;20034;-46
2023/12/26 00:19:04;;;;;;;10.02;4.05;;;;;;;;;;5104672;28;20030;-50
2023/12/26 00:21:30;;;;;;;11.32;4.30;;;;;;;;;;5103917;28;20020;-45
2023/12/26 00:23:57;;;;;;;24.23;6.00;;;;;;;;;;5104322;28;20317;-46
2023/12/26 00:26:24;;;;;;;30.95;7.25;;;;;;;;;;5094062;28;20027;-48
2023/12/26 00:28:50;;;;;;;25.98;8.45;;;;;;;;;;5096921;28;20115;-46
2023/12/26 00:31:17;;;;;;;31.05;9.75;;;;;;;;;;5090211;28;20062;-48
2023/12/26 00:33:44;;;;;;;44.63;14.82;;;;;;;;;;5093057;28;20031;-44
2023/12/26 00:36:14;;;;;;;38.38;13.02;;;;;;;;;;5093704;28;20092;-45
2023/12/26 00:38:40;;;;;;;27.35;10.93;;;;;;;;;;5094789;28;20039;-48
2023/12/26 00:41:07;;;;;;;28.08;10.25;;;;;;;;;;5092250;28;20025;-51
2023/12/26 00:43:34;;;;;;;26.08;9.20;;;;;;;;;;5093221;28;20039;-53
2023/12/26 00:46:00;;;;;;;26.38;9.10;;;;;;;;;;5098210;28;20024;-48
2023/12/26 00:48:27;;;;;;;27.55;9.38;;;;;;;;;;5095314;28;20091;-46
2023/12/26 00:50:54;;;;;;;23.80;9.35;;;;;;;;;;5092667;28;20035;-46
2023/12/26 00:53:22;;;;;;;22.02;7.85;;;;;;;;;;5096467;28;20027;-46
2023/12/26 00:55:48;;;;;;;19.38;7.75;;;;;;;;;;5093226;28;20015;-48
2023/12/26 00:58:15;;;;;;;24.77;8.30;;;;;;;;;;5092820;28;20083;-52
2023/12/26 01:00:41;;;;;;;21.98;8.15;;;;;;;;;;5092318;28;20009;-47
2023/12/26 01:03:09;;;;;;;23.15;7.95;;;;;;;;;;5089894;28;20043;-51
2023/12/26 01:05:35;;;;;;;21.38;8.30;;;;;;;;;;5104059;28;20028;-45
2023/12/26 01:08:02;;;;;;;22.48;8.73;;;;;;;;;;5108003;28;20068;-54
2023/12/26 01:10:29;;;;;;;19.88;8.98;;;;;;;;;;5107385;28;20031;-51
2023/12/26 01:12:55;;;;;;;19.30;8.50;;;;;;;;;;5107773;28;20077;-49
2023/12/26 01:15:22;;;;;;;18.67;7.20;;;;;;;;;;5107441;28;20077;-47
2023/12/26 01:17:49;;;;;;;15.45;5.75;;;;;;;;;;5107436;28;20126;-57
2023/12/26 01:20:16;;;;;;;15.60;5.68;;;;;;;;;;5106798;28;20227;-53
2023/12/26 01:22:43;;;;;;;16.10;6.13;;;;;;;;;;5107106;28;20094;-57
2023/12/26 01:25:09;;;;;;;17.92;6.70;;;;;;;;;;5107230;28;20027;-47
2023/12/26 01:27:36;;;;;;;18.67;6.05;;;;;;;;;;5107402;28;20028;-55
2023/12/26 01:30:03;;;;;;;14.15;5.90;;;;;;;;;;5107103;28;20089;-52
2023/12/26 01:32:30;;;;;;;13.95;6.05;;;;;;;;;;5106824;28;20261;-51
2023/12/26 01:34:56;;;;;;;16.80;6.55;;;;;;;;;;5107038;28;20028;-48
2023/12/26 01:37:24;;;;;;;13.60;5.63;;;;;;;;;;5102574;28;20292;-59
2023/12/26 01:39:51;;;;;;;11.85;5.65;;;;;;;;;;5095944;28;20023;-58
2023/12/26 01:42:17;;;;;;;12.77;5.18;;;;;;;;;;5107000;28;20024;-59
2023/12/26 01:44:44;;;;;;;14.45;4.88;;;;;;;;;;5106787;28;20020;-61
2023/12/26 01:47:12;;;;;;;13.00;4.57;;;;;;;;;;5105712;28;20035;-61
2023/12/26 01:49:38;;;;;;;14.48;5.05;;;;;;;;;;5105963;28;20028;-62
2023/12/26 01:52:05;;;;;;;11.77;4.13;;;;;;;;;;5106775;28;20038;-62
2023/12/26 01:54:34;;;;;;;8.32;3.85;;;;;;;;;;5106707;28;20241;-62
2023/12/26 01:57:02;;;;;;;13.00;4.53;;;;;;;;;;5106801;28;20008;-62
2023/12/26 01:59:29;;;;;;;10.32;4.43;;;;;;;;;;5106301;28;20302;-63
2023/12/26 02:01:55;;;;;;;11.55;4.30;;;;;;;;;;5100315;28;20017;-61
2023/12/26 02:04:22;;;;;;;13.43;4.50;;;;;;;;;;5102427;28;20016;-61
2023/12/26 02:06:49;;;;;;;14.05;4.95;;;;;;;;;;5105538;28;20125;-63
2023/12/26 02:09:16;;;;;;;12.13;5.07;;;;;;;;;;5106003;28;20308;-60
2023/12/26 02:11:43;;;;;;;13.20;4.68;;;;;;;;;;5099425;28;20023;-59
2023/12/26 02:14:09;;;;;;;12.43;4.95;;;;;;;;;;5087729;28;20095;-65
2023/12/26 02:16:38;;;;;;;14.93;4.63;;;;;;;;;;5089392;28;20364;-60
2023/12/26 02:19:05;;;;;;;15.48;5.13;;;;;;;;;;5105992;28;20032;-58
2023/12/26 02:21:32;;;;;;;18.27;5.22;;;;;;;;;;5106166;28;20040;-61
2023/12/26 02:23:59;;;;;;;17.63;5.75;;;;;;;;;;5106214;28;20235;-59
2023/12/26 02:26:28;;;;;;;14.52;5.00;;;;;;;;;;5105909;28;20024;-60
2023/12/26 02:28:56;;;;;;;17.35;5.45;;;;;;;;;;5106311;28;20051;-59
2023/12/26 02:31:23;;;;;;;14.02;4.85;;;;;;;;;;5099665;28;20024;-61
2023/12/26 02:33:50;;;;;;;12.98;5.35;;;;;;;;;;5086086;28;20035;-61
2023/12/26 02:36:17;;;;;;;8.60;3.10;;;;;;;;;;5085510;28;20025;-63
2023/12/26 02:38:43;;;;;;;7.38;2.65;;;;;;;;;;5085823;28;20309;-62
2023/12/26 02:41:10;;;;;;;7.43;2.25;;;;;;;;;;5085541;28;20054;-61
2023/12/26 02:43:37;;;;;;;7.18;2.45;;;;;;;;;;5085820;28;20186;-61
2023/12/26 02:46:04;;;;;;;8.57;2.53;;;;;;;;;;5085153;28;20092;-58
2023/12/26 02:48:30;;;;;;;10.43;2.17;;;;;;;;;;5085720;28;20036;-61
2023/12/26 02:50:57;;;;;;;7.38;2.00;;;;;;;;;;5084116;28;20306;-61
2023/12/26 02:53:23;;;;;;;5.70;1.80;;;;;;;;;;5085455;28;20036;-60
2023/12/26 02:55:54;;;;;;;3.45;1.40;;;;;;;;;;5085158;28;20024;-64
2023/12/26 02:58:21;;;;;;;5.65;1.70;;;;;;;;;;5085489;28;20036;-61
2023/12/26 03:00:48;;;;;;;4.47;1.20;;;;;;;;;;5084909;28;20017;-67
2023/12/26 03:03:15;;;;;;;3.83;0.90;;;;;;;;;;5085467;28;20095;-62
2023/12/26 03:05:42;;;;;;;5.40;1.30;;;;;;;;;;5104261;28;20028;-60
2023/12/26 03:08:09;;;;;;;7.38;1.60;;;;;;;;;;5105391;28;20028;-60
2023/12/26 03:10:35;;;;;;;4.63;1.52;;;;;;;;;;5105183;28;20016;-60
2023/12/26 03:13:02;;;;;;;4.57;1.05;;;;;;;;;;5105472;28;20038;-60
2023/12/26 03:15:28;;;;;;;4.55;1.05;;;;;;;;;;5105281;28;20047;-60
2023/12/26 03:17:55;;;;;;;2.97;0.90;;;;;;;;;;5105462;28;20085;-60
2023/12/26 03:20:22;;;;;;;5.28;1.65;;;;;;;;;;5105149;28;20089;-60
2023/12/26 03:22:48;;;;;;;59.72;5.47;;;;;;;;;;5105168;28;20027;-60
2023/12/26 03:25:15;;;;;;;65.70;7.20;;;;;;;;;;5105036;28;20129;-60
2023/12/26 03:27:42;;;;;;;43.63;5.22;;;;;;;;;;5104928;28;20028;-63
2023/12/26 03:30:08;;;;;;;22.92;3.58;;;;;;;;;;5103863;28;20044;-61
2023/12/26 03:32:35;;;;;;;11.57;2.30;;;;;;;;;;5104786;28;20212;-63
2023/12/26 03:35:02;;;;;;;12.35;1.83;;;;;;;;;;5104682;28;20020;-60
2023/12/26 03:37:29;;;;;;;11.00;1.70;;;;;;;;;;5104883;28;20032;-60
2023/12/26 03:39:56;;;;;;;8.80;1.30;;;;;;;;;;5104502;28;20019;-60
2023/12/26 03:42:23;;;;;;;7.25;1.50;;;;;;;;;;5104867;28;20083;-60
2023/12/26 03:44:49;;;;;;;5.50;1.50;;;;;;;;;;5104570;28;20016;-60
2023/12/26 03:47:16;;;;;;;5.22;1.02;;;;;;;;;;5104453;28;20327;-60
2023/12/26 03:49:42;;;;;;;7.78;1.80;;;;;;;;;;5104455;28;20077;-61
2023/12/26 03:52:09;;;;;;;5.72;1.90;;;;;;;;;;5104521;28;20028;-60
2023/12/26 03:54:36;;;;;;;4.93;1.50;;;;;;;;;;5104310;28;20327;-60
2023/12/26 03:57:03;;;;;;;5.30;1.30;;;;;;;;;;5104294;28;20028;-60
2023/12/26 03:59:29;;;;;;;5.03;1.42;;;;;;;;;;5104249;28;20138;-60
2023/12/26 04:01:56;;;;;;;3.08;1.00;;;;;;;;;;5104127;28;20023;-62
2023/12/26 04:04:23;;;;;;;3.80;1.08;;;;;;;;;;5104376;28;20027;-61
2023/12/26 04:06:49;;;;;;;3.35;0.93;;;;;;;;;;5104175;28;20312;-60
2023/12/26 04:09:18;;;;;;;4.65;1.10;;;;;;;;;;5104087;28;20328;-63
2023/12/26 04:11:45;;;;;;;2.55;0.70;;;;;;;;;;5104124;28;20024;-60
2023/12/26 04:14:11;;;;;;;3.33;1.10;;;;;;;;;;5104179;28;20039;-60
2023/12/26 04:16:38;;;;;;;4.80;0.90;;;;;;;;;;5103919;28;20304;-62
2023/12/26 04:19:05;;;;;;;3.45;0.85;;;;;;;;;;5104503;28;20274;-59
2023/12/26 04:21:31;;;;;;;2.40;1.02;;;;;;;;;;5104010;28;20071;-61
2023/12/26 04:23:58;;;;;;;2.15;0.82;;;;;;;;;;5104315;28;20024;-61
2023/12/26 04:26:24;;;;;;;1.88;0.80;;;;;;;;;;5104038;28;20028;-60
2023/12/26 04:28:51;;;;;;;3.83;0.85;;;;;;;;;;5104268;28;20048;-61
2023/12/26 04:31:17;;;;;;;3.03;1.10;;;;;;;;;;5103907;28;20075;-60
2023/12/26 04:33:45;;;;;;;3.83;1.10;;;;;;;;;;5104394;28;20040;-59
2023/12/26 04:36:11;;;;;;;3.42;1.05;;;;;;;;;;5104032;28;20015;-59
2023/12/26 04:38:38;;;;;;;4.57;1.02;;;;;;;;;;5104326;28;20027;-62
2023/12/26 04:41:10;;;;;;;3.45;1.13;;;;;;;;;;5106382;28;20024;-63
2023/12/26 04:43:36;;;;;;;5.07;1.25;;;;;;;;;;5108721;28;20240;-61
2023/12/26 04:46:03;;;;;;;3.40;0.90;;;;;;;;;;5107979;28;20047;-59
2023/12/26 04:48:30;;;;;;;3.65;1.10;;;;;;;;;;5108479;28;20032;-59
2023/12/26 04:50:56;;;;;;;3.70;1.10;;;;;;;;;;5108077;28;20024;-60
2023/12/26 04:53:24;;;;;;;3.72;0.85;;;;;;;;;;5108266;28;20024;-58
2023/12/26 04:55:51;;;;;;;3.25;0.80;;;;;;;;;;5108066;28;20036;-62
2023/12/26 04:58:18;;;;;;;5.20;0.90;;;;;;;;;;5108084;28;20081;-61
2023/12/26 05:00:45;;;;;;;3.92;1.10;;;;;;;;;;5107765;28;20097;-60
2023/12/26 05:03:11;;;;;;;4.65;1.20;;;;;;;;;;5108147;28;20036;-58
2023/12/26 05:05:38;;;;;;;3.42;1.40;;;;;;;;;;5107655;28;20031;-60
2023/12/26 05:08:05;;;;;;;3.55;1.30;;;;;;;;;;5107995;28;20051;-61
2023/12/26 05:10:33;;;;;;;2.60;1.30;;;;;;;;;;5107579;28;20088;-61
2023/12/26 05:13:00;;;;;;;7.25;1.35;;;;;;;;;;5107786;28;20308;-60
2023/12/26 05:15:27;;;;;;;4.80;1.50;;;;;;;;;;5107339;28;20035;-63
2023/12/26 05:17:53;;;;;;;4.53;1.70;;;;;;;;;;5107621;28;20080;-60
2023/12/26 05:20:20;;;;;;;6.68;1.77;;;;;;;;;;5107518;28;20035;-60
2023/12/26 05:22:47;;;;;;;6.90;1.73;;;;;;;;;;5107804;28;20085;-60
2023/12/26 05:25:13;;;;;;;4.47;1.45;;;;;;;;;;5107473;28;20054;-60
2023/12/26 05:27:40;;;;;;;3.92;1.60;;;;;;;;;;5107418;28;20085;-60
2023/12/26 05:30:07;;;;;;;4.15;1.67;;;;;;;;;;5107215;28;20275;-60
2023/12/26 05:32:34;;;;;;;5.63;1.70;;;;;;;;;;5107186;28;20066;-59
2023/12/26 05:35:00;;;;;;;3.95;1.30;;;;;;;;;;5107177;28;20094;-60
2023/12/26 05:37:27;;;;;;;3.75;1.50;;;;;;;;;;5107306;28;20043;-61
2023/12/26 05:39:54;;;;;;;4.85;1.33;;;;;;;;;;5106951;28;20034;-60
2023/12/26 05:42:20;;;;;;;4.82;1.67;;;;;;;;;;5107035;28;20019;-61
2023/12/26 05:44:47;;;;;;;4.85;1.40;;;;;;;;;;5106985;28;20020;-61
2023/12/26 05:47:14;;;;;;;4.40;1.67;;;;;;;;;;5106884;28;20020;-61
2023/12/26 05:49:40;;;;;;;7.32;2.00;;;;;;;;;;5106869;28;20368;-61
2023/12/26 05:52:07;;;;;;;4.80;1.85;;;;;;;;;;5105790;28;20028;-62
2023/12/26 05:54:33;;;;;;;5.78;1.73;;;;;;;;;;5106690;28;20020;-60
2023/12/26 05:57:00;;;;;;;7.03;1.52;;;;;;;;;;5106593;28;20342;-60
2023/12/26 05:59:27;;;;;;;3.45;1.50;;;;;;;;;;5106668;28;20343;-61
2023/12/26 06:01:53;;;;;;;5.70;2.05;;;;;;;;;;5106415;28;20012;-59
2023/12/26 06:04:20;;;;;;;5.38;1.90;;;;;;;;;;5106557;28;20065;-60
2023/12/26 06:06:46;;;;;;;8.40;2.25;;;;;;;;;;5106426;28;20031;-60
2023/12/26 06:09:13;;;;;;;6.22;1.73;;;;;;;;;;5106621;28;20085;-59
2023/12/26 06:11:39;;;;;;;5.82;2.10;;;;;;;;;;5106411;28;20019;-59
2023/12/26 06:14:07;;;;;;;9.30;1.85;;;;;;;;;;5106892;28;20055;-59
2023/12/26 06:16:33;;;;;;;5.90;1.80;;;;;;;;;;5096787;28;20220;-62
2023/12/26 06:19:00;;;;;;;3.67;1.50;;;;;;;;;;5086457;28;20058;-61
2023/12/26 06:21:27;;;;;;;6.18;2.00;;;;;;;;;;5086049;28;20378;-60
2023/12/26 06:23:53;;;;;;;6.03;2.08;;;;;;;;;;5086353;28;20227;-61
2023/12/26 06:26:20;;;;;;;5.53;1.90;;;;;;;;;;5086018;28;20035;-62
2023/12/26 06:28:46;;;;;;;5.85;1.65;;;;;;;;;;5086056;28;20047;-59
2023/12/26 06:31:16;;;;;;;6.53;2.00;;;;;;;;;;5085865;28;20091;-61
2023/12/26 06:33:43;;;;;;;7.25;1.80;;;;;;;;;;5086115;28;20087;-60
2023/12/26 06:36:09;;;;;;;5.30;1.92;;;;;;;;;;5085741;28;20088;-62
2023/12/26 06:38:36;;;;;;;5.38;1.90;;;;;;;;;;5086088;28;20343;-59
2023/12/26 06:41:02;;;;;;;6.47;2.08;;;;;;;;;;5085539;28;20032;-60
2023/12/26 06:43:29;;;;;;;5.78;2.00;;;;;;;;;;5085929;28;20031;-60
2023/12/26 06:45:56;;;;;;;4.65;2.10;;;;;;;;;;5085541;28;20062;-61
2023/12/26 06:48:22;;;;;;;5.30;1.88;;;;;;;;;;5098948;28;20246;-61
2023/12/26 06:50:49;;;;;;;6.97;1.98;;;;;;;;;;5105876;28;20208;-61
2023/12/26 06:53:16;;;;;;;4.28;1.98;;;;;;;;;;5106014;28;20024;-60
2023/12/26 06:55:42;;;;;;;10.32;2.00;;;;;;;;;;5105343;28;20215;-62
2023/12/26 06:58:09;;;;;;;5.55;1.98;;;;;;;;;;5105874;28;20028;-58
2023/12/26 07:00:36;;;;;;;6.95;2.20;;;;;;;;;;5105502;28;20082;-64
2023/12/26 07:03:02;;;;;;;5.78;2.05;;;;;;;;;;5105447;28;20091;-58
2023/12/26 07:05:29;;;;;;;7.55;2.45;;;;;;;;;;5105429;28;20019;-59
2023/12/26 07:07:55;;;;;;;5.80;1.90;;;;;;;;;;5104324;28;20355;-60
2023/12/26 07:10:22;;;;;;;9.40;2.33;;;;;;;;;;5105120;28;20019;-62
2023/12/26 07:12:49;;;;;;;5.90;2.20;;;;;;;;;;5105411;28;20031;-58
2023/12/26 07:15:15;;;;;;;4.60;1.80;;;;;;;;;;5105230;28;20073;-61
2023/12/26 07:17:42;;;;;;;4.43;1.80;;;;;;;;;;5105251;28;20319;-60
2023/12/26 07:20:09;;;;;;;6.25;1.88;;;;;;;;;;5105233;28;20023;-60
2023/12/26 07:22:35;;;;;;;7.95;2.28;;;;;;;;;;5105284;28;20028;-63
2023/12/26 07:25:02;;;;;;;6.82;2.53;;;;;;;;;;5104932;28;20330;-60
2023/12/26 07:27:29;;;;;;;5.38;2.00;;;;;;;;;;5104964;28;20028;-57
2023/12/26 07:29:55;;;;;;;5.68;2.10;;;;;;;;;;5104777;28;20060;-60
2023/12/26 07:32:22;;;;;;;9.68;2.22;;;;;;;;;;5104896;28;20024;-60
2023/12/26 07:34:49;;;;;;;5.15;1.85;;;;;;;;;;5104732;28;20022;-62
2023/12/26 07:37:15;;;;;;;8.52;1.90;;;;;;;;;;5104822;28;20196;-63
2023/12/26 07:39:42;;;;;;;4.00;1.83;;;;;;;;;;5104630;28;20019;-60
2023/12/26 07:42:08;;;;;;;5.07;1.90;;;;;;;;;;5104755;28;20016;-60
2023/12/26 07:44:35;;;;;;;3.97;2.00;;;;;;;;;;5104734;28;20042;-61
2023/12/26 07:47:02;;;;;;;4.75;1.95;;;;;;;;;;5104594;28;20019;-61
2023/12/26 07:49:28;;;;;;;4.75;1.88;;;;;;;;;;5104547;28;20035;-60
2023/12/26 07:51:55;;;;;;;6.82;1.83;;;;;;;;;;5104589;28;20057;-62
2023/12/26 07:54:22;;;;;;;8.00;2.05;;;;;;;;;;5104479;28;20020;-59
2023/12/26 07:56:48;;;;;;;4.85;2.20;;;;;;;;;;5104762;28;20170;-59
2023/12/26 07:59:15;;;;;;;5.05;1.83;;;;;;;;;;5104464;28;20085;-60
2023/12/26 08:01:42;;;;;;;6.15;1.90;;;;;;;;;;5104361;28;20020;-63
2023/12/26 08:04:08;;;;;;;6.57;1.92;;;;;;;;;;5104800;28;20200;-60
2023/12/26 08:06:35;;;;;;;4.70;1.63;;;;;;;;;;5104438;28;20047;-60
2023/12/26 08:09:03;;;;;;;5.57;1.70;;;;;;;;;;5104755;28;20359;-62
2023/12/26 08:11:30;;;;;;;6.40;2.00;;;;;;;;;;5104111;28;20020;-58
2023/12/26 08:13:57;;;;;;;7.53;2.00;;;;;;;;;;5104717;28;20035;-61
2023/12/26 08:16:24;;;;;;;8.65;2.10;;;;;;;;;;5103531;28;20251;-61
2023/12/26 08:18:50;;;;;;;5.70;1.95;;;;;;;;;;5104543;28;20035;-58
2023/12/26 08:21:17;;;;;;;6.10;2.00;;;;;;;;;;5104253;28;20032;-57
2023/12/26 08:23:43;;;;;;;7.45;2.25;;;;;;;;;;5104144;28;20030;-61
2023/12/26 08:26:10;;;;;;;8.57;2.15;;;;;;;;;;5101841;28;20189;-61
2023/12/26 08:28:37;;;;;;;8.27;2.42;;;;;;;;;;5088697;28;20087;-63
2023/12/26 08:31:03;;;;;;;7.18;2.10;;;;;;;;;;5104102;28;20020;-59
2023/12/26 08:33:31;;;;;;;6.43;2.50;;;;;;;;;;5104085;28;20028;-59
2023/12/26 08:35:57;;;;;;;5.95;2.05;;;;;;;;;;5103912;28;20028;-60
2023/12/26 08:38:24;;;;;;;7.60;2.22;;;;;;;;;;5104349;28;20027;-60
2023/12/26 08:40:51;;;;;;;6.47;2.28;;;;;;;;;;5103746;28;20039;-61
2023/12/26 08:43:17;;;;;;;8.85;2.00;;;;;;;;;;5104334;28;20229;-59
2023/12/26 08:45:44;;;;;;;6.65;2.35;;;;;;;;;;5104000;28;20020;-59
2023/12/26 08:48:11;;;;;;;12.60;2.63;;;;;;;;;;5104066;28;20032;-58
2023/12/26 08:50:37;;;;;;;4.97;2.25;;;;;;;;;;5103950;28;20343;-60
2023/12/26 08:53:04;;;;;;;13.52;2.83;;;;;;;;;;5102318;28;20042;-64
2023/12/26 08:55:31;;;;;;;19.00;2.95;;;;;;;;;;5100195;28;20016;-60
2023/12/26 08:57:57;;;;;;;24.17;4.32;;;;;;;;;;5101729;28;20028;-57
2023/12/26 09:00:24;;;;;;;14.13;2.88;;;;;;;;;;5103764;28;20035;-57
2023/12/26 09:02:51;;;;;;;13.13;2.90;;;;;;;;;;5103854;28;20028;-57
2023/12/26 09:05:17;;;;;;;15.07;3.17;;;;;;;;;;5103841;28;20027;-64
2023/12/26 09:07:44;;;;;;;24.73;3.20;;;;;;;;;;5103940;28;20024;-60
2023/12/26 09:10:10;;;;;;;16.20;3.35;;;;;;;;;;5103719;28;20040;-60
2023/12/26 09:12:37;;;;;;;17.50;3.10;;;;;;;;;;5103727;28;20036;-63
2023/12/26 09:15:04;;;;;;;9.60;2.47;;;;;;;;;;5103644;28;20046;-60
2023/12/26 09:17:31;;;;;;;9.75;2.30;;;;;;;;;;5104085;28;20020;-60
2023/12/26 09:19:58;;;;;;;11.50;3.00;;;;;;;;;;5103836;28;20020;-60
2023/12/26 09:22:24;;;;;;;7.70;2.28;;;;;;;;;;5103752;28;20046;-64
2023/12/26 09:24:51;;;;;;;9.73;2.22;;;;;;;;;;5103602;28;20018;-60
2023/12/26 09:27:17;;;;;;;11.82;2.42;;;;;;;;;;5104226;28;20065;-59
2023/12/26 09:29:44;;;;;;;9.55;2.47;;;;;;;;;;5107165;28;20047;-61
2023/12/26 09:32:10;;;;;;;9.07;2.20;;;;;;;;;;5107260;28;20020;-61
2023/12/26 09:34:37;;;;;;;11.00;2.30;;;;;;;;;;5107108;28;20049;-62
2023/12/26 09:37:04;;;;;;;9.80;2.42;;;;;;;;;;5107034;28;20348;-61
2023/12/26 09:39:31;;;;;;;7.00;2.42;;;;;;;;;;5107025;28;20083;-60
2023/12/26 09:41:59;;;;;;;7.50;2.60;;;;;;;;;;5106808;28;20016;-57
2023/12/26 09:44:25;;;;;;;8.57;2.22;;;;;;;;;;5107084;28;20048;-59
2023/12/26 09:46:52;;;;;;;6.40;2.15;;;;;;;;;;5106818;28;20093;-58
2023/12/26 09:49:19;;;;;;;9.73;2.72;;;;;;;;;;5106990;28;20012;-59
2023/12/26 09:51:46;;;;;;;7.13;2.45;;;;;;;;;;5106795;28;20016;-64
2023/12/26 09:54:13;;;;;;;9.77;2.53;;;;;;;;;;5106742;28;20320;-56
2023/12/26 09:56:43;;;;;;;7.50;2.35;;;;;;;;;;5106551;28;20048;-57
2023/12/26 09:59:10;;;;;;;7.25;2.47;;;;;;;;;;5107228;28;20028;-58
2023/12/26 10:01:37;;;;;;;6.68;2.28;;;;;;;;;;5106882;28;20016;-58
2023/12/26 10:04:04;;;;;;;7.82;2.55;;;;;;;;;;5106990;28;20046;-59
2023/12/26 10:06:31;;;;;;;7.57;2.42;;;;;;;;;;5106496;28;20027;-58
2023/12/26 10:08:58;;;;;;;8.93;2.30;;;;;;;;;;5106910;28;20024;-60
2023/12/26 10:11:28;;;;;;;6.72;2.60;;;;;;;;;;5106653;28;20079;-60
2023/12/26 10:13:55;;;;;;;6.47;2.80;;;;;;;;;;5106992;28;20028;-58
2023/12/26 10:16:22;;;;;;;5.97;2.58;;;;;;;;;;5106281;28;20031;-59
2023/12/26 10:18:50;;;;;;;9.35;2.70;;;;;;;;;;5106526;28;20087;-60
2023/12/26 10:21:17;;;;;;;9.80;3.28;;;;;;;;;;5106317;28;20020;-59
2023/12/26 10:23:44;;;;;;;8.73;3.40;;;;;;;;;;5106079;28;20023;-59
2023/12/26 10:26:10;;;;;;;12.00;4.47;;;;;;;;;;5105914;28;20069;-60
2023/12/26 10:28:41;;;;;;;30.25;4.85;;;;;;;;;;5106280;28;20304;-59
2023/12/26 10:31:14;;;;;;;22.50;5.40;;;;;;;;;;5105988;28;20031;-59
2023/12/26 10:33:41;;;;;;;48.53;8.80;;;;;;;;;;5106376;28;20036;-62
2023/12/26 10:36:12;;;;;;;31.77;7.65;;;;;;;;;;5105808;28;20220;-60
2023/12/26 10:38:45;;;;;;;38.60;7.28;;;;;;;;;;5105597;28;20024;-59
2023/12/26 10:52:11;;;;;;;15.65;4.60;;;;;;;;;;5121674;27;20405;-61
2023/12/26 10:54:38;;;;;;;15.63;4.97;;;;;;;;;;5101262;28;20315;-62
2023/12/26 10:57:06;;;;;;;13.43;5.22;;;;;;;;;;5101134;28;20244;-62
2023/12/26 13:51:25;;;;;;;14.73;3.45;;;;;;;;;;5057045;28;20300;-59
2023/12/26 13:54:10;;;;;;;9.50;2.78;;;;;;;;;;5058096;28;20063;-59
2023/12/26 13:56:55;;;;;;;6.43;3.20;;;;;;;;;;5071167;28;20075;-57
2023/12/26 13:59:40;;;;;;;6.97;3.28;;;;;;;;;;5064028;28;20027;-63
2023/12/26 14:02:26;;;;;;;10.80;3.10;;;;;;;;;;5064946;28;20020;-59
2023/12/26 14:05:11;;;;;;;8.68;3.10;;;;;;;;;;5071294;28;20075;-61
2023/12/26 14:07:57;;;;;;;8.75;2.97;;;;;;;;;;5083961;28;20237;-63
2023/12/26 14:10:42;;;;;;;5.80;2.33;;;;;;;;;;5080005;28;20020;-59
2023/12/26 14:13:27;;;;;;;5.97;2.60;;;;;;;;;;5064874;28;20036;-61
2023/12/26 14:16:12;;;;;;;4.63;2.30;;;;;;;;;;5063773;28;20296;-58
2023/12/26 14:18:57;;;;;;;6.63;2.83;;;;;;;;;;5044043;28;20044;-60
2023/12/26 14:21:43;;;;;;;7.50;2.70;;;;;;;;;;5044328;28;20202;-57
2023/12/26 14:24:28;;;;;;;5.68;2.63;;;;;;;;;;5043987;28;20068;-55
2023/12/26 14:27:13;;;;;;;6.55;2.47;;;;;;;;;;5043660;28;20071;-59
2023/12/26 14:29:59;;;;;;;10.57;3.30;;;;;;;;;;5043839;28;20030;-60
2023/12/26 14:32:44;;;;;;;9.07;3.33;;;;;;;;;;5043966;28;20029;-57
2023/12/26 14:35:29;;;;;;;8.25;2.80;;;;;;;;;;5043835;28;20308;-59
2023/12/26 14:38:15;;;;;;;8.60;3.03;;;;;;;;;;5055415;28;20212;-59
2023/12/26 14:41:00;;;;;;;8.43;3.40;;;;;;;;;;5055229;28;20052;-60
2023/12/26 14:43:45;;;;;;;7.53;3.15;;;;;;;;;;5062859;28;20017;-60
2023/12/26 14:46:30;;;;;;;7.40;3.17;;;;;;;;;;5074044;28;20091;-59
2023/12/26 14:49:15;;;;;;;8.68;3.30;;;;;;;;;;5083497;28;20244;-59
2023/12/26 14:52:00;;;;;;;8.05;3.10;;;;;;;;;;5083586;28;20344;-59
2023/12/26 14:54:45;;;;;;;10.13;3.58;;;;;;;;;;5076309;28;20036;-58
2023/12/26 14:57:30;;;;;;;8.75;3.65;;;;;;;;;;5066484;28;20036;-57
2023/12/26 15:00:15;;;;;;;8.73;3.80;;;;;;;;;;5065989;28;20339;-61
2023/12/26 15:02:44;;;;;;;10.02;4.53;;;;;;;;;;5069820;28;20359;-59
2023/12/26 15:05:11;;;;;;;8.73;3.65;;;;;;;;;;5083519;28;20026;-60
2023/12/26 15:07:38;;;;;;;7.85;4.25;;;;;;;;;;5052958;28;20025;-60
2023/12/26 15:10:05;;;;;;;7.20;4.55;;;;;;;;;;5043452;28;20339;-57
2023/12/26 15:12:31;;;;;;;11.82;4.22;;;;;;;;;;5062873;28;20193;-56
2023/12/26 15:14:58;;;;;;;7.68;4.20;;;;;;;;;;5063487;28;20075;-58
2023/12/26 15:17:24;;;;;;;10.00;4.20;;;;;;;;;;5067271;28;20024;-57
2023/12/26 15:19:51;;;;;;;8.50;4.03;;;;;;;;;;5063479;28;20074;-62
2023/12/26 15:22:18;;;;;;;8.20;3.83;;;;;;;;;;5063266;28;20259;-59
2023/12/26 15:24:44;;;;;;;9.00;3.95;;;;;;;;;;5063335;28;20031;-58
2023/12/26 15:27:11;;;;;;;6.90;3.58;;;;;;;;;;5065007;28;20021;-55
2023/12/26 15:29:38;;;;;;;7.82;3.60;;;;;;;;;;5067178;28;20021;-56
2023/12/26 15:32:07;;;;;;;6.10;3.55;;;;;;;;;;5067051;28;20039;-60
2023/12/26 15:34:34;;;;;;;7.50;3.60;;;;;;;;;;5067018;28;20021;-59
2023/12/26 15:37:01;;;;;;;7.60;3.85;;;;;;;;;;5067005;28;20201;-60
2023/12/26 15:39:27;;;;;;;12.73;4.30;;;;;;;;;;5066577;28;20017;-62
2023/12/26 15:41:54;;;;;;;13.90;4.57;;;;;;;;;;5071222;28;20024;-58
2023/12/26 15:44:21;;;;;;;9.88;4.20;;;;;;;;;;5068760;28;20013;-62
2023/12/26 15:46:47;;;;;;;11.30;4.25;;;;;;;;;;5066406;28;20080;-61
2023/12/26 15:49:14;;;;;;;12.10;3.47;;;;;;;;;;5066616;28;20031;-60
2023/12/26 15:51:42;;;;;;;7.10;3.22;;;;;;;;;;5069221;28;20045;-64
2023/12/26 15:54:08;;;;;;;8.55;3.53;;;;;;;;;;5073870;28;20309;-64
2023/12/26 15:56:35;;;;;;;9.43;3.80;;;;;;;;;;5065993;28;20052;-59
2023/12/26 15:59:04;;;;;;;8.07;3.40;;;;;;;;;;5077385;28;20238;-59
2023/12/26 16:01:30;;;;;;;6.47;3.40;;;;;;;;;;5066751;28;20118;-58
2023/12/26 16:03:57;;;;;;;6.82;2.95;;;;;;;;;;5066503;28;20017;-58
2023/12/26 16:06:24;;;;;;;8.35;3.35;;;;;;;;;;5066900;28;20259;-54
2023/12/26 16:08:51;;;;;;;6.63;2.97;;;;;;;;;;5065797;28;20028;-57
2023/12/26 16:11:18;;;;;;;8.57;3.30;;;;;;;;;;5065163;28;20078;-57
2023/12/26 16:13:44;;;;;;;7.07;3.17;;;;;;;;;;5077275;28;20024;-57
2023/12/26 16:16:11;;;;;;;8.48;3.25;;;;;;;;;;5086749;28;20070;-70
2023/12/26 16:18:39;;;;;;;4.30;2.38;;;;;;;;;;5082431;28;20029;-60
2023/12/26 16:21:08;;;;;;;4.68;2.40;;;;;;;;;;5077963;28;20029;-59
2023/12/26 16:23:35;;;;;;;7.38;3.08;;;;;;;;;;5069216;28;20016;-59
2023/12/26 16:26:05;;;;;;;6.78;2.78;;;;;;;;;;5065913;28;20021;-59
2023/12/26 16:28:32;;;;;;;5.90;2.58;;;;;;;;;;5060536;28;20025;-60
2023/12/26 16:31:00;;;;;;;5.75;2.60;;;;;;;;;;5057314;28;20032;-64
2023/12/26 16:33:27;;;;;;;5.88;2.63;;;;;;;;;;5055188;28;20054;-57
2023/12/26 16:35:54;;;;;;;5.13;2.65;;;;;;;;;;5056135;28;20064;-56
2023/12/26 16:38:23;;;;;;;8.88;3.15;;;;;;;;;;5054163;28;20067;-61
2023/12/26 16:40:49;;;;;;;6.55;3.05;;;;;;;;;;5057016;28;20297;-60
2023/12/26 16:43:16;;;;;;;7.43;3.30;;;;;;;;;;5053975;28;20093;-60
2023/12/26 16:45:43;;;;;;;7.75;2.92;;;;;;;;;;5055629;28;20110;-58
2023/12/26 16:48:10;;;;;;;7.53;3.55;;;;;;;;;;5064265;28;20204;-58
2023/12/26 16:50:36;;;;;;;6.70;3.05;;;;;;;;;;5056579;28;20112;-57
2023/12/26 16:53:04;;;;;;;7.28;3.47;;;;;;;;;;5053695;28;20021;-58
2023/12/26 16:55:30;;;;;;;10.50;2.80;;;;;;;;;;5052079;28;20248;-60
2023/12/26 16:57:57;;;;;;;6.80;2.97;;;;;;;;;;5065526;28;20031;-59
2023/12/26 17:00:23;;;;;;;6.88;3.17;;;;;;;;;;5064245;28;20025;-61
2023/12/26 17:02:50;;;;;;;8.30;3.22;;;;;;;;;;5063982;28;20473;-61
2023/12/26 17:05:17;;;;;;;11.43;3.25;;;;;;;;;;5065374;28;20174;-61
2023/12/26 17:07:43;;;;;;;8.63;3.38;;;;;;;;;;5064259;28;20021;-64
2023/12/26 17:10:10;;;;;;;6.20;3.15;;;;;;;;;;5064465;28;20025;-62
2023/12/26 17:12:36;;;;;;;5.43;2.83;;;;;;;;;;5063917;28;20064;-62
2023/12/26 17:15:03;;;;;;;8.18;2.83;;;;;;;;;;5064258;28;20043;-59
2023/12/26 17:17:30;;;;;;;6.00;3.08;;;;;;;;;;5064838;28;20020;-60
2023/12/26 17:19:57;;;;;;;5.47;2.80;;;;;;;;;;5064889;28;20021;-58
2023/12/26 17:22:23;;;;;;;5.20;2.80;;;;;;;;;;5064789;28;20084;-59
2023/12/26 17:24:50;;;;;;;8.43;3.00;;;;;;;;;;5064465;28;20044;-61
2023/12/26 17:27:17;;;;;;;8.48;3.13;;;;;;;;;;5064545;28;20316;-59
2023/12/26 17:29:43;;;;;;;9.15;2.90;;;;;;;;;;5064880;28;20067;-61
2023/12/26 17:32:10;;;;;;;8.18;2.90;;;;;;;;;;5064599;28;20017;-60
2023/12/26 17:34:36;;;;;;;9.75;3.28;;;;;;;;;;5064702;28;20025;-61
2023/12/26 17:37:03;;;;;;;7.63;2.85;;;;;;;;;;5064488;28;20024;-62
2023/12/26 17:39:29;;;;;;;9.43;3.33;;;;;;;;;;5064320;28;20245;-58
2023/12/26 17:41:56;;;;;;;9.43;3.45;;;;;;;;;;5064481;28;20020;-60
2023/12/26 17:44:23;;;;;;;7.78;3.30;;;;;;;;;;5064068;28;20021;-59
2023/12/26 17:46:50;;;;;;;9.82;3.17;;;;;;;;;;5064333;28;20372;-62